Time;durP1;ratioP1;P1;durP2;ratioP2;P2;SDS_P1;SDS_P2;PMS_P1;PMS_P2;Temp;Humidity;BMP_temperature;BMP_pressure;BME280_temperature;BME280_humidity;BME280_pressure;Samples;Min_cycle;Max_cycle;Signal;HPM_P1;HPM_P2
2022/12/25 00:01:16;;;;;;;174.37;59.13;;;11.00;99.40;;;;;;5032815;28;20218;-67
2022/12/25 00:03:43;;;;;;;157.90;53.27;;;11.00;99.40;;;;;;5033802;28;20290;-67
2022/12/25 00:06:10;;;;;;;158.27;52.40;;;11.10;99.40;;;;;;5032966;28;20186;-67
2022/12/25 00:08:39;;;;;;;164.70;56.00;;;11.10;99.40;;;;;;5035442;28;20264;-67
2022/12/25 00:11:13;;;;;;;165.37;53.13;;;11.00;99.30;;;;;;5040679;28;20522;-67
2022/12/25 00:13:41;;;;;;;161.87;54.93;;;11.00;99.20;;;;;;5036331;28;20328;-67
2022/12/25 00:16:20;;;;;;;183.57;57.17;;;11.10;99.30;;;;;;5030385;28;20511;-67
2022/12/25 00:18:50;;;;;;;146.90;47.17;;;11.10;99.30;;;;;;5031487;28;20202;-67
2022/12/25 00:21:19;;;;;;;154.60;51.90;;;11.10;99.20;;;;;;5035844;28;20574;-67
2022/12/25 00:23:46;;;;;;;174.40;57.03;;;11.10;99.50;;;;;;5036335;28;20192;-67
2022/12/25 00:26:15;;;;;;;167.97;58.43;;;11.10;99.20;;;;;;5033945;28;20208;-67
2022/12/25 00:28:43;;;;;;;168.13;55.47;;;11.10;99.20;;;;;;5035363;28;20210;-67
2022/12/25 00:31:13;;;;;;;188.10;59.03;;;11.10;99.20;;;;;;5035259;28;20206;-67
2022/12/25 00:33:42;;;;;;;176.13;61.30;;;11.10;99.00;;;;;;5031578;28;20207;-67
2022/12/25 00:36:12;;;;;;;184.07;61.80;;;11.00;98.90;;;;;;5033382;28;20208;-67
2022/12/25 00:38:39;;;;;;;165.13;56.50;;;11.00;99.00;;;;;;5029850;28;20270;-67
2022/12/25 00:41:09;;;;;;;173.03;60.30;;;11.00;99.10;;;;;;5035838;28;20758;-67
2022/12/25 00:43:37;;;;;;;175.27;59.33;;;11.00;99.10;;;;;;5038295;28;20200;-67
2022/12/25 00:46:05;;;;;;;183.90;59.80;;;11.00;99.20;;;;;;5035886;28;20233;-68
2022/12/25 00:48:33;;;;;;;195.37;63.47;;;11.00;99.20;;;;;;5034052;28;20202;-67
2022/12/25 00:51:04;;;;;;;170.40;59.83;;;11.00;99.10;;;;;;5033469;28;20225;-67
2022/12/25 00:53:31;;;;;;;169.07;60.70;;;11.00;99.10;;;;;;5035005;28;20199;-67
2022/12/25 00:56:04;;;;;;;180.90;59.20;;;11.00;99.20;;;;;;5035697;28;20280;-67
2022/12/25 00:58:33;;;;;;;170.97;59.90;;;10.90;99.10;;;;;;5034780;28;20232;-67
2022/12/25 01:01:01;;;;;;;164.83;58.43;;;10.90;99.10;;;;;;5035479;28;20246;-68
2022/12/25 01:03:29;;;;;;;185.17;58.13;;;10.90;99.20;;;;;;5030685;28;20626;-67
2022/12/25 01:05:58;;;;;;;174.30;59.87;;;10.90;99.20;;;;;;5034100;28;20244;-68
2022/12/25 01:08:28;;;;;;;181.60;60.90;;;10.90;99.20;;;;;;5035157;28;20199;-67
2022/12/25 01:11:00;;;;;;;176.30;60.10;;;10.90;99.20;;;;;;5036446;28;20204;-67
2022/12/25 01:13:28;;;;;;;168.77;60.97;;;10.90;99.30;;;;;;5041043;28;20245;-67
2022/12/25 01:15:55;;;;;;;165.87;59.33;;;10.90;99.40;;;;;;5034789;28;20216;-67
2022/12/25 01:18:24;;;;;;;166.77;57.30;;;10.90;99.40;;;;;;5032243;28;20203;-67
2022/12/25 01:20:51;;;;;;;180.40;57.80;;;10.90;99.40;;;;;;5032390;28;20206;-68
2022/12/25 01:23:18;;;;;;;186.23;61.73;;;10.90;99.40;;;;;;5035430;28;20202;-67
2022/12/25 01:25:44;;;;;;;184.37;59.47;;;10.90;99.40;;;;;;5032858;28;20226;-67
2022/12/25 01:28:12;;;;;;;179.27;63.40;;;10.90;99.40;;;;;;5036222;28;20201;-67
2022/12/25 01:30:39;;;;;;;157.53;55.90;;;10.90;99.40;;;;;;5038437;28;20230;-67
2022/12/25 01:33:06;;;;;;;168.90;58.10;;;10.90;99.40;;;;;;5035952;28;20516;-67
2022/12/25 01:35:33;;;;;;;159.57;54.53;;;10.90;99.40;;;;;;5033297;28;20209;-67
2022/12/25 01:38:00;;;;;;;161.63;55.50;;;10.90;99.40;;;;;;5031646;28;20225;-67
2022/12/25 01:40:27;;;;;;;154.67;55.57;;;10.90;99.40;;;;;;5030451;28;20552;-67
2022/12/25 01:42:54;;;;;;;161.03;55.73;;;11.00;99.40;;;;;;5033203;28;20206;-67
2022/12/25 01:45:42;;;;;;;176.00;58.03;;;10.90;99.40;;;;;;5030492;28;20217;-67
2022/12/25 01:48:16;;;;;;;171.97;58.53;;;10.90;99.40;;;;;;5030915;28;20194;-67
2022/12/25 01:50:49;;;;;;;166.40;56.47;;;10.90;99.30;;;;;;5039182;28;20210;-67
2022/12/25 01:53:16;;;;;;;176.57;56.60;;;10.90;99.30;;;;;;5033587;28;20224;-67
2022/12/25 01:55:46;;;;;;;173.07;57.30;;;11.00;99.30;;;;;;5033753;28;20267;-67
2022/12/25 01:58:14;;;;;;;183.70;60.13;;;11.00;99.30;;;;;;5030424;28;20206;-68
2022/12/25 02:00:41;;;;;;;168.37;56.23;;;10.90;99.30;;;;;;5031919;28;20208;-67
2022/12/25 02:03:08;;;;;;;153.20;55.33;;;11.00;99.30;;;;;;5031470;28;20207;-67
2022/12/25 02:05:35;;;;;;;174.57;58.57;;;10.90;99.30;;;;;;5032638;28;20225;-67
2022/12/25 02:08:10;;;;;;;180.00;62.37;;;11.00;99.30;;;;;;5034107;28;20201;-67
2022/12/25 02:10:38;;;;;;;170.57;59.33;;;11.00;99.30;;;;;;5032453;28;20652;-67
2022/12/25 02:13:06;;;;;;;164.80;61.20;;;11.00;99.30;;;;;;5037153;28;20324;-67
2022/12/25 02:15:58;;;;;;;159.37;57.07;;;11.00;99.40;;;;;;5035038;28;20214;-67
2022/12/25 02:18:37;;;;;;;156.43;58.37;;;11.00;99.40;;;;;;5035571;28;20584;-67
2022/12/25 02:21:23;;;;;;;145.00;53.67;;;11.00;99.40;;;;;;5038177;28;20226;-67
2022/12/25 02:24:25;;;;;;;144.03;55.40;;;11.00;99.30;;;;;;5039859;28;20197;-67
2022/12/25 02:27:15;;;;;;;156.57;58.00;;;11.00;99.30;;;;;;5027269;28;20642;-67
2022/12/25 02:30:17;;;;;;;165.70;59.43;;;11.00;99.20;;;;;;5042422;28;20204;-68
2022/12/25 02:36:07;;;;;;;163.07;56.07;;;11.00;99.30;;;;;;5036921;28;20210;-68
2022/12/25 02:39:56;;;;;;;164.43;55.63;;;11.00;99.20;;;;;;5037950;28;20633;-67
2022/12/25 02:41:28;;;;;;;181.97;57.87;;;11.00;99.30;;;;;;5038368;28;20226;-68
2022/12/25 03:07:21;;;;;;;145.57;57.73;;;11.00;99.10;;;;;;5036034;28;20214;-67
2022/12/25 03:12:50;;;;;;;153.43;61.70;;;10.90;99.10;;;;;;5039211;28;20606;-67
2022/12/25 03:18:11;;;;;;;163.47;59.03;;;10.90;99.00;;;;;;5034345;28;20609;-67
2022/12/25 03:29:01;;;;;;;157.57;61.03;;;10.80;99.10;;;;;;5040292;28;20587;-67
2022/12/25 03:31:45;;;;;;;169.63;61.27;;;10.80;99.20;;;;;;5036581;28;20205;-67
2022/12/25 04:36:18;;;;;;;145.70;54.80;;;10.80;99.40;;;;;;5032772;28;20700;-67
2022/12/25 04:38:45;;;;;;;163.97;56.43;;;10.80;99.40;;;;;;5034431;28;20217;-67
2022/12/25 04:41:13;;;;;;;147.80;57.60;;;10.80;99.40;;;;;;5040241;28;20260;-67
2022/12/25 04:43:40;;;;;;;156.37;58.30;;;10.80;99.40;;;;;;5035995;28;20291;-68
2022/12/25 04:46:07;;;;;;;141.33;54.13;;;10.90;99.40;;;;;;5035032;28;20218;-67
2022/12/25 04:48:35;;;;;;;155.67;57.40;;;10.90;99.30;;;;;;5033812;28;20206;-67
2022/12/25 04:51:14;;;;;;;176.47;59.67;;;10.80;99.20;;;;;;5035602;28;20221;-67
2022/12/25 04:53:42;;;;;;;152.33;54.90;;;10.90;99.30;;;;;;5035030;28;20256;-67
2022/12/25 04:56:09;;;;;;;137.77;51.83;;;10.80;99.30;;;;;;5034212;28;20213;-67
2022/12/25 04:58:37;;;;;;;141.07;55.97;;;10.80;99.30;;;;;;5029666;28;20217;-67
2022/12/25 05:01:04;;;;;;;141.60;55.33;;;10.80;99.30;;;;;;5038148;28;20205;-67
2022/12/25 05:03:31;;;;;;;159.57;56.87;;;10.80;99.30;;;;;;5033641;28;20276;-67
2022/12/25 05:05:59;;;;;;;153.03;56.43;;;10.80;99.40;;;;;;5032833;28;20710;-67
2022/12/25 05:08:29;;;;;;;131.77;53.40;;;10.80;99.40;;;;;;5033812;28;20201;-67
2022/12/25 05:10:56;;;;;;;139.20;54.63;;;10.80;99.40;;;;;;5034637;28;20197;-67
2022/12/25 05:13:23;;;;;;;149.23;56.07;;;10.80;99.40;;;;;;5038809;28;20249;-67
2022/12/25 05:15:51;;;;;;;132.60;52.57;;;10.80;99.40;;;;;;5032087;28;20210;-67
2022/12/25 05:18:18;;;;;;;119.23;53.07;;;10.80;99.40;;;;;;5033595;28;20205;-67
2022/12/25 05:20:54;;;;;;;130.00;53.17;;;10.80;99.40;;;;;;5035564;28;20266;-67
2022/12/25 05:23:22;;;;;;;140.40;54.27;;;10.80;99.40;;;;;;5035074;28;20210;-67
2022/12/25 05:25:49;;;;;;;176.83;58.60;;;10.80;99.30;;;;;;5033048;28;20610;-67
2022/12/25 05:28:16;;;;;;;137.83;56.53;;;10.80;99.30;;;;;;5036356;28;20298;-67
2022/12/25 05:30:43;;;;;;;151.97;62.27;;;10.80;99.30;;;;;;5034660;28;20224;-67
2022/12/25 05:33:10;;;;;;;155.27;62.30;;;10.80;99.30;;;;;;5032559;28;20206;-67
2022/12/25 05:35:38;;;;;;;145.10;58.13;;;10.80;99.30;;;;;;5032117;28;20210;-67
2022/12/25 05:38:06;;;;;;;151.47;57.17;;;10.70;99.30;;;;;;5033692;28;20201;-67
2022/12/25 05:40:37;;;;;;;126.27;55.03;;;10.80;99.40;;;;;;5035447;28;20607;-67
2022/12/25 05:43:04;;;;;;;156.47;56.37;;;10.80;99.30;;;;;;5034042;28;20549;-67
2022/12/25 05:45:31;;;;;;;155.80;57.07;;;10.70;99.30;;;;;;5031439;28;20225;-67
2022/12/25 05:47:58;;;;;;;153.70;59.73;;;10.80;99.30;;;;;;5030970;28;20220;-67
2022/12/25 05:50:25;;;;;;;157.80;59.17;;;10.70;99.20;;;;;;5036704;28;20574;-67
2022/12/25 05:53:07;;;;;;;154.50;59.53;;;10.80;99.20;;;;;;5037973;28;20292;-67
2022/12/25 05:55:36;;;;;;;159.30;61.80;;;10.80;99.20;;;;;;5038216;28;20225;-67
2022/12/25 05:58:04;;;;;;;153.13;58.10;;;10.80;99.20;;;;;;5035771;28;20654;-67
2022/12/25 06:00:32;;;;;;;156.83;61.87;;;10.80;99.20;;;;;;5034758;28;20205;-67
2022/12/25 06:02:59;;;;;;;173.87;63.40;;;10.80;99.20;;;;;;5036912;28;20576;-67
2022/12/25 06:05:27;;;;;;;160.80;62.90;;;10.80;99.20;;;;;;5038984;28;20213;-67
2022/12/25 06:07:54;;;;;;;161.70;62.80;;;10.80;99.20;;;;;;5035068;28;21706;-67
2022/12/25 06:10:21;;;;;;;154.97;58.00;;;10.80;99.20;;;;;;5040387;28;20203;-68
2022/12/25 06:12:48;;;;;;;155.37;61.37;;;10.80;99.20;;;;;;5041043;28;20636;-67
2022/12/25 06:15:16;;;;;;;153.53;64.13;;;10.80;99.40;;;;;;5039146;28;20675;-67
2022/12/25 06:17:43;;;;;;;165.63;62.03;;;10.80;99.10;;;;;;5036090;28;20201;-67
2022/12/25 06:20:10;;;;;;;154.83;61.00;;;10.80;99.10;;;;;;5037292;28;20563;-67
2022/12/25 06:22:37;;;;;;;151.43;62.03;;;10.70;99.10;;;;;;5041294;28;20207;-67
2022/12/25 06:25:04;;;;;;;160.37;58.97;;;10.70;99.10;;;;;;5037793;28;20232;-67
2022/12/25 06:27:32;;;;;;;142.80;58.17;;;10.70;99.20;;;;;;5038196;28;20204;-67
2022/12/25 06:29:59;;;;;;;144.87;57.00;;;10.70;99.10;;;;;;5042817;28;20194;-67
2022/12/25 06:32:26;;;;;;;126.17;53.10;;;10.70;99.10;;;;;;5035261;28;20589;-67
2022/12/25 06:34:53;;;;;;;140.80;59.13;;;10.70;99.20;;;;;;5037684;28;20520;-67
2022/12/25 06:37:20;;;;;;;125.90;54.00;;;10.70;99.20;;;;;;5034259;28;20217;-67
2022/12/25 06:39:47;;;;;;;139.47;56.43;;;10.60;99.20;;;;;;5042061;28;20228;-67
2022/12/25 06:42:14;;;;;;;139.43;56.33;;;10.60;99.20;;;;;;5037979;28;20239;-67
2022/12/25 06:44:41;;;;;;;128.07;53.53;;;10.60;99.30;;;;;;5037851;28;20680;-67
2022/12/25 06:47:08;;;;;;;133.77;55.40;;;10.60;99.30;;;;;;5035293;28;20232;-67
2022/12/25 06:49:35;;;;;;;144.37;56.93;;;10.60;99.30;;;;;;5037327;28;20206;-67
2022/12/25 06:52:02;;;;;;;131.00;54.37;;;10.60;99.30;;;;;;5035880;28;20219;-67
2022/12/25 06:54:29;;;;;;;120.73;55.40;;;10.60;99.30;;;;;;5036910;28;20208;-67
2022/12/25 06:56:56;;;;;;;155.57;59.80;;;10.60;99.30;;;;;;5035818;28;20233;-67
2022/12/25 06:59:23;;;;;;;161.30;58.70;;;10.60;99.30;;;;;;5041238;28;20239;-68
2022/12/25 07:01:53;;;;;;;184.90;61.47;;;10.60;99.40;;;;;;5038799;28;20263;-67
2022/12/25 07:04:37;;;;;;;167.90;59.73;;;10.60;99.40;;;;;;5037205;28;20198;-67
2022/12/25 07:07:06;;;;;;;184.13;62.50;;;10.70;99.40;;;;;;5037395;28;20668;-67
2022/12/25 07:09:37;;;;;;;178.40;62.87;;;10.70;99.40;;;;;;5039704;28;20206;-67
2022/12/25 07:12:18;;;;;;;190.07;60.70;;;10.70;99.40;;;;;;5039658;28;20243;-67
2022/12/25 07:14:48;;;;;;;200.73;65.40;;;10.70;99.40;;;;;;5034500;28;20203;-67
2022/12/25 07:17:16;;;;;;;174.23;60.77;;;10.70;99.40;;;;;;5034122;28;20643;-67
2022/12/25 07:19:45;;;;;;;207.93;66.50;;;10.70;99.40;;;;;;5034829;28;20208;-67
2022/12/25 07:22:13;;;;;;;203.20;65.50;;;10.70;99.30;;;;;;5038908;28;20226;-67
2022/12/25 07:24:41;;;;;;;184.37;64.30;;;10.80;99.40;;;;;;5037157;28;20521;-67
2022/12/25 07:27:08;;;;;;;201.07;64.27;;;10.80;99.40;;;;;;5032473;28;20312;-67
2022/12/25 07:29:35;;;;;;;205.27;63.43;;;10.80;99.40;;;;;;5041263;28;20204;-67
2022/12/25 07:32:02;;;;;;;222.27;63.20;;;10.80;99.40;;;;;;5035115;28;20200;-67
2022/12/25 07:34:29;;;;;;;259.13;71.30;;;10.90;99.40;;;;;;5036022;28;20202;-67
2022/12/25 07:36:56;;;;;;;268.93;69.20;;;10.90;99.40;;;;;;5035288;28;20244;-67
2022/12/25 07:39:23;;;;;;;298.80;68.20;;;10.90;99.40;;;;;;5037857;28;20254;-67
2022/12/25 07:41:50;;;;;;;267.40;69.17;;;10.90;99.40;;;;;;5036761;28;20205;-68
2022/12/25 07:44:17;;;;;;;398.63;69.43;;;11.00;99.40;;;;;;5037639;28;20254;-67
2022/12/25 07:46:44;;;;;;;405.67;69.40;;;11.00;99.30;;;;;;5030653;28;20217;-67
2022/12/25 07:49:12;;;;;;;834.93;79.20;;;11.00;99.30;;;;;;5035975;28;20217;-67
2022/12/25 07:51:39;;;;;;;794.87;78.13;;;11.00;99.20;;;;;;5034303;28;20234;-67
2022/12/25 07:54:06;;;;;;;560.60;66.93;;;11.00;99.20;;;;;;5035887;28;20217;-68
2022/12/25 07:56:33;;;;;;;653.53;73.80;;;11.00;99.20;;;;;;5034485;28;20263;-67
2022/12/25 07:59:00;;;;;;;509.63;67.90;;;11.00;99.20;;;;;;5033744;28;20213;-67
2022/12/25 08:01:28;;;;;;;448.13;67.60;;;11.00;99.30;;;;;;5038414;28;20218;-67
2022/12/25 08:04:00;;;;;;;370.47;71.43;;;11.00;99.40;;;;;;5034746;28;20218;-67
2022/12/25 08:06:33;;;;;;;416.37;67.97;;;11.00;99.40;;;;;;5031599;28;20269;-68
2022/12/25 08:09:08;;;;;;;336.77;72.23;;;11.00;99.40;;;;;;5038076;28;20206;-67
2022/12/25 08:11:36;;;;;;;312.43;73.20;;;11.00;99.40;;;;;;5033574;28;20207;-67
2022/12/25 08:14:07;;;;;;;334.03;74.37;;;11.10;99.40;;;;;;5037825;28;20283;-67
2022/12/25 08:16:38;;;;;;;315.27;73.50;;;11.10;99.40;;;;;;5031361;28;20226;-67
2022/12/25 08:19:06;;;;;;;258.10;70.97;;;11.00;99.40;;;;;;5036897;28;20264;-67
2022/12/25 08:21:33;;;;;;;279.77;76.10;;;11.10;99.50;;;;;;5036079;28;20202;-67
2022/12/25 08:24:01;;;;;;;253.63;73.77;;;11.10;99.60;;;;;;5036786;28;20210;-67
2022/12/25 08:26:29;;;;;;;280.23;73.43;;;11.20;99.70;;;;;;5034502;28;20623;-67
2022/12/25 08:28:56;;;;;;;285.60;69.83;;;11.20;99.70;;;;;;5034001;28;20200;-67
2022/12/25 08:31:25;;;;;;;300.37;72.57;;;11.30;99.70;;;;;;5031745;28;20201;-67
2022/12/25 08:33:55;;;;;;;290.63;73.93;;;11.30;99.60;;;;;;5033716;28;20211;-67
2022/12/25 08:36:23;;;;;;;277.53;70.63;;;11.40;99.60;;;;;;5031646;28;20209;-67
2022/12/25 08:38:50;;;;;;;266.47;71.60;;;11.40;99.50;;;;;;5033218;28;20214;-67
2022/12/25 08:41:21;;;;;;;257.90;68.77;;;11.50;99.50;;;;;;5036697;28;20204;-67
2022/12/25 08:43:49;;;;;;;267.07;73.30;;;11.50;99.50;;;;;;5036808;28;20657;-67
2022/12/25 08:46:16;;;;;;;266.47;70.07;;;11.60;99.50;;;;;;5031932;28;20637;-67
2022/12/25 08:48:44;;;;;;;254.00;70.93;;;11.60;99.40;;;;;;5030528;28;20603;-67
2022/12/25 08:51:14;;;;;;;227.03;70.80;;;11.60;99.40;;;;;;5034952;28;20547;-67
2022/12/25 08:53:44;;;;;;;217.43;68.50;;;11.70;99.40;;;;;;5037535;28;20191;-67
2022/12/25 08:56:12;;;;;;;217.77;72.47;;;11.80;99.40;;;;;;5033943;28;20547;-67
2022/12/25 08:58:39;;;;;;;207.90;66.33;;;11.80;99.50;;;;;;5033937;28;20213;-67
2022/12/25 09:01:07;;;;;;;208.97;65.27;;;11.80;99.10;;;;;;5029255;28;20206;-67
2022/12/25 09:03:34;;;;;;;219.97;66.50;;;11.90;99.10;;;;;;5035976;28;20200;-67
2022/12/25 09:06:04;;;;;;;214.33;68.33;;;11.90;99.00;;;;;;5034098;28;20204;-67
2022/12/25 09:08:32;;;;;;;211.87;67.87;;;11.90;98.90;;;;;;5037303;28;20208;-67
2022/12/25 09:11:03;;;;;;;236.90;71.07;;;12.00;98.90;;;;;;5036316;28;20558;-67
2022/12/25 09:13:31;;;;;;;194.37;64.87;;;12.00;98.90;;;;;;5037706;28;20243;-67
2022/12/25 09:15:58;;;;;;;182.67;63.20;;;12.00;98.80;;;;;;5032997;28;20199;-67
2022/12/25 09:18:26;;;;;;;184.77;64.67;;;12.10;98.80;;;;;;5034863;28;20205;-67
2022/12/25 09:20:58;;;;;;;182.80;63.07;;;12.10;98.70;;;;;;5033516;28;20224;-67
2022/12/25 09:23:25;;;;;;;187.00;65.70;;;12.20;98.60;;;;;;5036370;28;20194;-67
2022/12/25 09:25:53;;;;;;;166.70;64.13;;;12.20;98.50;;;;;;5035353;28;20200;-67
2022/12/25 09:28:20;;;;;;;180.73;65.03;;;12.20;98.50;;;;;;5040085;28;20230;-67
2022/12/25 09:30:51;;;;;;;176.60;67.73;;;12.30;98.50;;;;;;5034008;28;20205;-66
2022/12/25 09:33:19;;;;;;;158.87;63.47;;;12.30;98.40;;;;;;5035152;28;20240;-67
2022/12/25 09:35:58;;;;;;;171.87;63.90;;;12.40;98.30;;;;;;5036786;28;20205;-67
2022/12/25 09:38:27;;;;;;;168.40;66.23;;;12.40;98.10;;;;;;5039095;28;20206;-67
2022/12/25 09:40:58;;;;;;;169.47;64.20;;;12.50;98.00;;;;;;5046908;28;20198;-66
2022/12/25 09:43:27;;;;;;;164.90;62.77;;;12.50;97.90;;;;;;5037100;28;20205;-67
2022/12/25 09:45:56;;;;;;;151.80;63.27;;;12.60;97.90;;;;;;5034156;28;20192;-67
2022/12/25 09:48:26;;;;;;;154.10;62.50;;;12.60;97.80;;;;;;5037589;28;20564;-67
2022/12/25 09:51:08;;;;;;;149.10;61.60;;;12.70;97.80;;;;;;5039160;28;20201;-67
2022/12/25 09:53:43;;;;;;;140.97;61.73;;;12.70;97.70;;;;;;5036558;28;20205;-66
2022/12/25 09:56:27;;;;;;;136.40;58.33;;;12.80;97.60;;;;;;5037737;28;20221;-67
2022/12/25 09:58:54;;;;;;;141.47;61.37;;;12.80;97.40;;;;;;5037798;28;20221;-66
2022/12/25 10:01:39;;;;;;;130.60;60.60;;;12.90;97.30;;;;;;5035401;28;20544;-67
2022/12/25 10:04:31;;;;;;;127.60;60.80;;;13.00;97.30;;;;;;5035787;28;20205;-66
2022/12/25 10:07:14;;;;;;;120.17;56.87;;;13.10;97.20;;;;;;5034732;28;20741;-66
2022/12/25 10:10:20;;;;;;;114.57;54.70;;;13.30;97.00;;;;;;5035542;28;20201;-66
2022/12/25 10:13:12;;;;;;;119.03;57.33;;;13.40;96.70;;;;;;5035913;28;20242;-67
2022/12/25 10:15:42;;;;;;;103.77;50.20;;;13.60;96.50;;;;;;5035801;28;20206;-66
2022/12/25 10:18:37;;;;;;;94.93;50.60;;;13.70;96.10;;;;;;5036914;28;20219;-66
2022/12/25 10:21:09;;;;;;;88.70;49.70;;;13.80;95.50;;;;;;5038492;28;20267;-66
2022/12/25 10:23:40;;;;;;;97.90;49.83;;;13.90;95.10;;;;;;5035912;28;20215;-67
2022/12/25 10:26:24;;;;;;;91.77;49.27;;;14.00;94.80;;;;;;5035971;28;20211;-66
2022/12/25 10:29:02;;;;;;;98.57;50.17;;;14.00;94.30;;;;;;5032831;28;20278;-66
2022/12/25 10:31:34;;;;;;;84.70;46.67;;;14.10;94.00;;;;;;5036722;28;20214;-66
2022/12/25 10:34:03;;;;;;;74.70;43.97;;;14.20;93.60;;;;;;5033165;28;20587;-66
2022/12/25 10:36:30;;;;;;;75.37;41.63;;;14.20;93.30;;;;;;5034684;28;20223;-67
2022/12/25 10:38:57;;;;;;;64.37;39.80;;;14.20;92.90;;;;;;5040995;28;20210;-66
2022/12/25 10:41:38;;;;;;;69.77;39.90;;;14.20;92.60;;;;;;5038074;28;20199;-67
2022/12/25 10:44:19;;;;;;;73.90;41.60;;;14.20;92.10;;;;;;5036623;28;20199;-66
2022/12/25 10:46:55;;;;;;;78.10;43.07;;;14.20;91.60;;;;;;5033492;28;20234;-67
2022/12/25 10:49:25;;;;;;;62.77;37.73;;;14.20;91.40;;;;;;5033916;28;20551;-66
2022/12/25 10:51:52;;;;;;;73.97;41.73;;;14.20;91.20;;;;;;5038140;28;20191;-66
2022/12/25 10:54:24;;;;;;;65.67;38.97;;;14.20;90.50;;;;;;5038780;28;20213;-66
2022/12/25 10:57:09;;;;;;;66.83;39.57;;;14.10;90.60;;;;;;5033937;28;20220;-66
2022/12/25 10:59:43;;;;;;;60.37;35.17;;;14.10;90.60;;;;;;5034976;28;20215;-66
2022/12/25 11:02:16;;;;;;;47.87;31.43;;;14.20;90.60;;;;;;5034379;28;20624;-66
2022/12/25 11:04:43;;;;;;;59.00;35.40;;;14.20;90.50;;;;;;5035431;28;20220;-66
2022/12/25 11:07:24;;;;;;;57.00;33.10;;;14.20;90.10;;;;;;5034410;28;20215;-66
2022/12/25 11:09:58;;;;;;;54.83;33.03;;;14.20;89.40;;;;;;5038698;28;20198;-66
2022/12/25 11:12:36;;;;;;;57.37;35.13;;;14.30;89.10;;;;;;5037926;28;20248;-66
2022/12/25 11:15:26;;;;;;;56.73;34.40;;;14.30;89.30;;;;;;5033498;28;20191;-66
2022/12/25 11:17:53;;;;;;;60.73;35.10;;;14.40;89.10;;;;;;5022909;28;20570;-66
2022/12/25 11:20:21;;;;;;;61.23;34.73;;;14.40;87.70;;;;;;5035924;28;20209;-66
2022/12/25 11:22:49;;;;;;;49.87;30.27;;;14.40;87.30;;;;;;5035579;28;20203;-66
2022/12/25 11:25:25;;;;;;;46.97;27.70;;;14.40;87.40;;;;;;5035870;28;20564;-66
2022/12/25 11:28:01;;;;;;;38.63;24.57;;;14.50;87.40;;;;;;5036369;28;20222;-66
2022/12/25 11:30:32;;;;;;;38.33;24.37;;;14.50;87.10;;;;;;5035231;28;20194;-66
2022/12/25 11:33:03;;;;;;;37.90;22.43;;;14.60;85.70;;;;;;5035997;28;20237;-66
2022/12/25 11:35:44;;;;;;;33.60;22.00;;;14.60;85.00;;;;;;5032153;28;20213;-66
2022/12/25 11:38:12;;;;;;;34.13;21.17;;;14.60;84.20;;;;;;5037505;28;20210;-66
2022/12/25 11:40:48;;;;;;;34.83;22.30;;;14.70;83.00;;;;;;5038870;28;20209;-66
2022/12/25 11:43:39;;;;;;;31.00;20.63;;;14.70;82.70;;;;;;5034934;28;20358;-66
2022/12/25 11:46:17;;;;;;;34.67;23.43;;;14.80;83.10;;;;;;5034942;28;20210;-66
2022/12/25 11:49:09;;;;;;;37.43;23.83;;;14.80;83.30;;;;;;5028717;28;20215;-66
2022/12/25 11:51:40;;;;;;;31.67;22.63;;;14.90;82.70;;;;;;5035435;28;20252;-66
2022/12/25 11:54:21;;;;;;;35.50;21.70;;;14.90;82.60;;;;;;5036553;28;20247;-66
2022/12/25 11:56:48;;;;;;;32.23;20.80;;;15.00;82.60;;;;;;5032100;28;20261;-67
2022/12/25 11:59:44;;;;;;;33.40;20.97;;;15.10;82.00;;;;;;5033441;28;20659;-66
2022/12/25 12:02:33;;;;;;;36.10;23.83;;;15.10;80.40;;;;;;5033395;28;20199;-66
2022/12/25 12:05:47;;;;;;;36.57;22.97;;;15.10;80.30;;;;;;5032436;28;20205;-66
2022/12/25 12:08:14;;;;;;;32.53;20.83;;;15.20;80.60;;;;;;5034536;28;20270;-66
2022/12/25 12:10:59;;;;;;;39.43;24.07;;;15.30;79.60;;;;;;5035181;28;20213;-66
2022/12/25 12:13:32;;;;;;;35.90;21.37;;;15.20;79.10;;;;;;5035204;28;20241;-66
2022/12/25 12:15:59;;;;;;;39.90;23.90;;;15.20;79.70;;;;;;5028820;28;20187;-66
2022/12/25 12:18:26;;;;;;;30.57;21.57;;;15.20;78.40;;;;;;5034756;28;20233;-66
2022/12/25 12:21:06;;;;;;;36.70;24.13;;;15.20;78.10;;;;;;5034986;28;20199;-66
2022/12/25 12:23:56;;;;;;;39.23;24.97;;;15.10;77.90;;;;;;5036552;28;20210;-66
2022/12/25 12:26:29;;;;;;;34.27;23.17;;;15.10;78.90;;;;;;5034615;28;20211;-66
2022/12/25 12:29:01;;;;;;;36.70;23.50;;;15.10;79.00;;;;;;5031763;28;20214;-66
2022/12/25 12:31:41;;;;;;;35.53;22.93;;;15.10;79.50;;;;;;5033436;28;20202;-66
2022/12/25 12:34:26;;;;;;;33.47;21.77;;;15.20;79.70;;;;;;5034525;28;20193;-66
2022/12/25 12:37:00;;;;;;;40.60;24.40;;;15.20;79.50;;;;;;5033735;28;20241;-66
2022/12/25 12:39:37;;;;;;;40.20;23.33;;;15.30;78.50;;;;;;5035804;28;20201;-66
2022/12/25 12:42:43;;;;;;;38.03;23.27;;;15.30;78.90;;;;;;5035397;28;20381;-66
2022/12/25 12:45:22;;;;;;;35.43;22.27;;;15.30;79.30;;;;;;5031806;28;20210;-66
2022/12/25 12:47:50;;;;;;;36.20;22.53;;;15.40;79.30;;;;;;5032332;28;20220;-66
2022/12/25 12:50:43;;;;;;;34.70;21.67;;;15.40;79.10;;;;;;5035796;28;20640;-66
2022/12/25 12:53:23;;;;;;;35.80;21.47;;;15.40;78.60;;;;;;5034608;28;20651;-66
2022/12/25 12:55:50;;;;;;;37.43;24.63;;;15.50;78.60;;;;;;5032347;28;20559;-66
2022/12/25 12:58:49;;;;;;;40.73;25.23;;;15.50;78.70;;;;;;5034500;28;20205;-67
2022/12/25 13:01:39;;;;;;;128.83;66.87;;;15.50;78.60;;;;;;5033069;28;20206;-66
2022/12/25 13:04:25;;;;;;;63.70;36.97;;;15.50;78.50;;;;;;5032556;28;20516;-66
2022/12/25 13:07:04;;;;;;;40.73;26.10;;;15.50;78.50;;;;;;5034542;28;20282;-66
2022/12/25 13:09:50;;;;;;;1920.93;733.17;;;15.50;78.60;;;;;;5037892;28;20222;-66
2022/12/25 13:12:19;;;;;;;85.80;45.07;;;15.40;78.70;;;;;;5021071;28;20768;-67
2022/12/25 13:14:48;;;;;;;158.63;86.60;;;15.40;78.70;;;;;;5032111;28;20221;-67
2022/12/25 13:17:21;;;;;;;42.17;26.37;;;15.40;78.80;;;;;;5033143;28;20225;-67
2022/12/25 13:19:53;;;;;;;55.27;31.57;;;15.40;78.60;;;;;;5036711;28;20210;-67
2022/12/25 13:22:30;;;;;;;43.90;25.23;;;15.20;79.20;;;;;;5030779;28;20279;-66
2022/12/25 13:25:03;;;;;;;88.07;38.23;;;15.10;78.80;;;;;;5032664;28;20203;-66
2022/12/25 13:27:32;;;;;;;44.33;26.00;;;15.00;79.10;;;;;;5032364;28;20250;-66
2022/12/25 13:30:10;;;;;;;76.47;32.03;;;14.90;79.60;;;;;;5031999;28;20230;-66
2022/12/25 13:32:37;;;;;;;47.63;28.87;;;14.80;80.00;;;;;;5033496;28;20193;-66
2022/12/25 13:35:10;;;;;;;64.83;37.67;;;14.70;80.40;;;;;;5031687;28;20210;-66
2022/12/25 13:37:37;;;;;;;51.60;31.93;;;14.70;80.90;;;;;;5032245;28;20199;-66
2022/12/25 13:40:16;;;;;;;59.13;37.93;;;14.70;81.30;;;;;;5040140;28;20211;-66
2022/12/25 13:42:46;;;;;;;66.53;38.03;;;14.60;81.80;;;;;;5037691;28;20210;-66
2022/12/25 13:45:13;;;;;;;62.87;38.63;;;14.70;82.30;;;;;;5033540;28;20617;-66
2022/12/25 13:47:42;;;;;;;69.93;39.03;;;14.70;82.70;;;;;;5032744;28;20241;-66
2022/12/25 13:50:25;;;;;;;74.27;39.73;;;14.70;83.10;;;;;;5034076;28;20234;-66
2022/12/25 13:52:54;;;;;;;70.27;41.37;;;14.70;83.50;;;;;;5035773;28;20265;-66
2022/12/25 13:55:29;;;;;;;72.47;42.10;;;14.70;83.70;;;;;;5033610;28;20655;-66
2022/12/25 13:58:02;;;;;;;73.07;40.27;;;14.80;84.30;;;;;;5029952;28;20264;-66
2022/12/25 14:00:49;;;;;;;71.43;41.03;;;14.80;84.60;;;;;;5034291;28;20206;-66
2022/12/25 14:03:22;;;;;;;76.60;42.03;;;14.80;84.90;;;;;;5036173;28;20274;-66
2022/12/25 14:06:01;;;;;;;76.43;42.47;;;14.70;85.10;;;;;;5034027;28;20199;-67
2022/12/25 14:08:31;;;;;;;79.40;43.03;;;14.70;85.40;;;;;;5035267;28;20229;-66
2022/12/25 14:11:02;;;;;;;73.07;42.70;;;14.70;85.80;;;;;;5043496;28;20203;-67
2022/12/25 14:13:32;;;;;;;71.73;40.20;;;14.70;85.80;;;;;;5035752;28;20624;-66
2022/12/25 14:15:59;;;;;;;72.53;41.17;;;14.60;86.30;;;;;;5034468;28;20202;-65
2022/12/25 14:18:28;;;;;;;74.20;42.67;;;14.60;86.50;;;;;;5035859;28;20203;-66
2022/12/25 14:21:20;;;;;;;75.73;41.73;;;14.60;86.80;;;;;;5033533;28;20694;-66
2022/12/25 14:23:49;;;;;;;76.60;41.50;;;14.50;87.00;;;;;;5038520;28;20236;-67
2022/12/25 14:26:17;;;;;;;80.13;41.67;;;14.50;87.10;;;;;;5038249;28;20214;-66
2022/12/25 14:29:13;;;;;;;80.00;42.37;;;14.40;87.40;;;;;;5035399;28;20225;-66